createdAt,value
2019-05-17T00:00:29.543Z,59511.46
2019-05-17T00:05:26.507Z,59471.41
2019-05-17T00:10:22.594Z,59496.08
2019-05-17T00:15:18.662Z,59513.11
2019-05-17T00:20:20.236Z,59458.49
2019-05-17T00:25:16.812Z,59491.37
2019-05-17T00:30:12.910Z,59475.77
2019-05-17T00:35:09.743Z,59477.77
2019-05-17T00:40:07.305Z,59514.06
2019-05-17T00:45:07.314Z,59552.14
2019-05-17T00:50:07.421Z,59510.29
2019-05-17T00:55:07.018Z,59537.23
2019-05-17T01:00:08.489Z,59504.02
2019-05-17T01:05:06.343Z,59466.55
2019-05-17T01:10:06.983Z,59517.03
2019-05-17T01:15:07.586Z,59533.70
2019-05-17T01:20:06.871Z,59447.04
2019-05-17T01:25:07.974Z,59535.36
2019-05-17T01:30:08.284Z,59539.48
2019-05-17T01:35:07.258Z,59534.63
2019-05-17T01:40:06.813Z,59499.86
2019-05-17T01:45:07.275Z,59496.57
2019-05-17T01:50:06.780Z,59508.16
2019-05-17T01:55:06.752Z,59489.71
2019-05-17T02:00:08.153Z,59523.76
2019-05-17T02:05:07.913Z,59517.14
2019-05-17T02:10:07.518Z,59539.14
2019-05-17T02:15:07.570Z,59527.79
2019-05-17T02:20:06.412Z,59535.59
2019-05-17T02:25:08.555Z,59536.77
2019-05-17T02:30:05.389Z,59527.90
2019-05-17T02:35:03.395Z,59516.54
2019-05-17T02:40:04.719Z,59573.41
2019-05-17T02:44:57.095Z,59499.75
2019-05-17T02:49:53.038Z,59503.79
2019-05-17T02:54:48.966Z,59515.71
2019-05-17T02:59:45.005Z,59537.95
2019-05-17T03:04:43.241Z,59520.69
2019-05-17T03:09:38.787Z,59508.49
2019-05-17T03:14:34.738Z,59510.05
2019-05-17T03:19:32.975Z,59521.04
2019-05-17T03:24:29.175Z,59539.83
2019-05-17T03:29:25.102Z,59538.67
2019-05-17T03:34:26.571Z,59562.07
2019-05-17T03:39:22.483Z,59509.21
2019-05-17T03:44:17.345Z,59505.67
2019-05-17T03:49:13.409Z,59506.86
2019-05-17T03:54:09.348Z,59531.21
2019-05-17T03:59:05.280Z,59515.00
2019-05-17T04:04:02.846Z,59526.35
2019-05-17T04:08:59.092Z,59532.50
2019-05-17T04:13:55.202Z,59555.93
2019-05-17T04:18:53.485Z,59527.77
2019-05-17T04:23:49.038Z,59572.23
2019-05-17T04:28:45.074Z,59531.10
2019-05-17T04:33:42.777Z,59561.95
2019-05-17T04:38:38.973Z,59538.42
2019-05-17T04:43:34.934Z,59589.97
2019-05-17T04:48:32.737Z,59591.52
2019-05-17T04:53:32.478Z,59574.36
2019-05-17T04:58:27.184Z,59605.70
2019-05-17T05:03:23.978Z,59565.94
2019-05-17T05:08:22.414Z,59563.10
2019-05-17T05:13:22.510Z,59584.77
2019-05-17T05:18:17.435Z,59609.37
2019-05-17T05:23:13.617Z,59580.12
2019-05-17T05:28:11.439Z,59626.64
2019-05-17T05:33:07.547Z,59611.73
2019-05-17T05:38:03.579Z,59646.28
2019-05-17T05:42:59.507Z,59660.48
2019-05-17T05:47:55.484Z,59632.43
2019-05-17T05:52:52.387Z,59640.35
2019-05-17T05:57:48.446Z,59561.06
2019-05-17T06:02:44.378Z,59640.48
2019-05-17T06:07:41.655Z,59631.35
2019-05-17T06:12:37.969Z,59676.46
2019-05-17T06:17:33.899Z,59705.58
2019-05-17T06:22:31.822Z,59752.38
2019-05-17T06:27:29.005Z,59703.07
2019-05-17T06:32:25.141Z,59688.39
2019-05-17T06:37:22.400Z,59757.95
2019-05-17T06:42:18.858Z,59803.23
2019-05-17T06:47:14.798Z,59851.25
2019-05-17T06:52:11.629Z,59884.95
2019-05-17T06:57:07.770Z,59887.34
2019-05-17T07:02:03.709Z,59847.93
2019-05-17T07:07:20.565Z,59852.45
2019-05-17T07:12:16.282Z,59865.25
2019-05-17T07:17:12.210Z,59900.63
2019-05-17T07:22:09.512Z,59887.55
2019-05-17T07:27:05.672Z,59923.90
2019-05-17T07:32:01.610Z,59908.95
2019-05-17T07:36:59.646Z,59879.03
2019-05-17T07:41:55.379Z,59912.50
2019-05-17T07:46:51.913Z,59915.33
2019-05-17T07:51:50.177Z,59975.22
2019-05-17T07:56:45.809Z,59996.13
2019-05-17T08:01:41.829Z,60006.59
2019-05-17T08:06:40.029Z,59990.43
2019-05-17T08:11:35.574Z,59992.79
2019-05-17T08:16:31.508Z,59929.94
2019-05-17T08:21:27.436Z,59909.15
2019-05-17T08:26:23.365Z,59904.53
2019-05-17T08:31:20.217Z,59925.31
2019-05-17T08:36:16.317Z,59899.91
2019-05-17T08:41:12.256Z,59885.20
2019-05-17T08:46:10.599Z,59880.20
2019-05-17T08:51:06.043Z,59896.12
2019-05-17T08:56:02.028Z,59922.71
2019-05-17T09:01:00.329Z,59926.38
2019-05-17T09:05:55.810Z,59948.84
2019-05-17T09:10:51.739Z,59941.58
2019-05-17T09:15:49.420Z,59972.48
2019-05-17T09:20:45.505Z,59956.20
2019-05-17T09:25:41.430Z,60016.34
2019-05-17T09:30:40.155Z,60048.79
2019-05-17T09:35:35.298Z,60112.18
2019-05-17T09:40:31.229Z,60175.77
2019-05-17T09:45:27.362Z,60211.98
2019-05-17T09:50:23.966Z,60247.72
2019-05-17T09:55:19.859Z,60165.29
2019-05-17T10:00:16.084Z,60227.94
2019-05-17T10:05:12.106Z,60259.16
2019-05-17T10:10:10.515Z,60236.53
2019-05-17T10:15:06.270Z,60238.91
2019-05-17T10:20:07.618Z,60186.36
2019-05-17T10:25:05.947Z,60155.04
2019-05-17T10:30:04.383Z,60146.94
2019-05-17T10:35:00.578Z,60151.00
2019-05-17T10:39:56.674Z,60148.97
2019-05-17T10:44:55.040Z,60190.05
2019-05-17T10:50:00.662Z,60194.35
2019-05-17T10:54:56.688Z,60248.07
2019-05-17T10:59:52.618Z,60281.33
2019-05-17T11:04:50.619Z,60278.96
2019-05-17T11:09:46.370Z,60344.81
2019-05-17T11:14:52.328Z,60378.82
2019-05-17T11:19:56.325Z,60379.64
2019-05-17T11:24:52.355Z,60380.72
2019-05-17T11:29:48.290Z,60376.54
2019-05-17T11:34:44.241Z,60370.10
2019-05-17T11:39:40.240Z,60393.02
2019-05-17T11:44:36.203Z,60388.36
2019-05-17T11:49:33.523Z,60414.64
2019-05-17T11:54:29.565Z,60449.63
2019-05-17T11:59:25.491Z,60515.37
2019-05-17T12:04:21.451Z,60540.71
2019-05-17T12:09:17.432Z,60519.91
2019-05-17T12:14:13.367Z,60479.96
2019-05-17T12:19:09.300Z,60492.64
2019-05-17T12:24:05.325Z,60571.80
2019-05-17T12:29:01.268Z,60741.02
2019-05-17T12:33:57.208Z,60805.36
2019-05-17T12:38:53.143Z,60819.31
2019-05-17T12:43:49.410Z,60798.16
2019-05-17T12:48:45.339Z,60773.50
2019-05-17T12:53:41.662Z,60898.21
2019-05-17T12:58:38.910Z,60947.50
2019-05-17T13:03:35.080Z,60710.95
2019-05-17T13:08:38.121Z,60922.39
2019-05-17T13:13:34.049Z,60890.11
2019-05-17T13:18:31.918Z,60771.46
2019-05-17T13:23:30.561Z,60783.21
2019-05-17T13:28:26.512Z,60859.45
2019-05-17T13:33:22.441Z,60840.99
2019-05-17T13:38:18.364Z,60705.92
2019-05-17T13:43:14.406Z,60771.10
2019-05-17T13:48:10.437Z,60888.43
2019-05-17T13:53:06.390Z,60866.84
2019-05-17T13:58:02.632Z,60887.46
2019-05-17T14:02:58.661Z,60991.68
2019-05-17T14:07:54.591Z,60772.78
2019-05-17T14:12:50.522Z,61026.61
2019-05-17T14:17:46.458Z,60951.35
2019-05-17T14:22:42.485Z,60822.64
2019-05-17T14:27:38.415Z,60963.94
2019-05-17T14:32:34.359Z,60772.66
2019-05-17T14:37:30.288Z,60860.96
2019-05-17T14:42:26.238Z,60901.18
2019-05-17T14:47:22.163Z,60987.92
2019-05-17T14:52:18.196Z,60922.31
2019-05-17T14:57:14.285Z,60905.70
2019-05-17T15:02:10.262Z,60885.77
2019-05-17T15:07:06.304Z,60940.32
2019-05-17T15:12:02.234Z,60990.45
2019-05-17T15:16:58.176Z,61071.40
2019-05-17T15:21:54.139Z,60978.15
2019-05-17T15:27:04.199Z,61086.00
2019-05-17T15:31:51.740Z,61187.29
2019-05-17T15:36:45.753Z,61138.68
2019-05-17T15:41:41.701Z,61041.31
2019-05-17T15:46:37.685Z,60899.04
2019-05-17T15:51:33.610Z,60846.69
2019-05-17T15:56:29.559Z,60836.00
2019-05-17T16:01:25.486Z,60815.70
2019-05-17T16:06:21.418Z,60833.69
2019-05-17T16:11:17.460Z,60900.10
2019-05-17T16:16:13.457Z,61008.95
2019-05-17T16:21:09.388Z,61237.40
2019-05-17T16:26:05.432Z,61241.83
2019-05-17T16:31:01.363Z,61150.80
2019-05-17T16:35:57.298Z,60936.60
2019-05-17T16:40:53.323Z,60871.04
2019-05-17T16:45:49.261Z,60831.58
2019-05-17T16:50:46.494Z,60771.11
2019-05-17T16:55:42.487Z,60797.47
2019-05-17T17:00:40.824Z,60744.62
2019-05-17T17:05:36.861Z,60717.62
2019-05-17T17:10:32.885Z,60637.75
2019-05-17T17:15:29.428Z,60558.79
2019-05-17T17:20:25.874Z,60548.37
2019-05-17T17:25:21.774Z,60490.75
2019-05-17T17:30:17.804Z,60519.79
2019-05-17T17:35:13.938Z,60501.86
2019-05-17T17:40:10.265Z,60476.87
2019-05-17T17:45:06.806Z,60448.31
2019-05-17T17:50:05.933Z,60509.60
2019-05-17T17:55:02.362Z,60448.67
2019-05-17T17:59:58.289Z,60482.48
2019-05-17T18:04:54.230Z,60486.18
2019-05-17T18:09:50.172Z,60459.30
2019-05-17T18:14:46.101Z,60482.10
2019-05-17T18:19:50.678Z,60416.90
2019-05-17T18:24:46.708Z,60397.56
2019-05-17T18:29:42.631Z,60413.56
2019-05-17T18:34:38.572Z,60420.95
2019-05-17T18:39:34.499Z,60314.86
2019-05-17T18:44:30.428Z,60328.80
2019-05-17T18:49:26.423Z,60317.85
2019-05-17T18:54:22.363Z,60252.96
2019-05-17T18:59:18.282Z,60294.58
2019-05-17T19:04:14.206Z,60272.03
2019-05-17T19:09:10.234Z,60290.51
2019-05-17T19:14:06.163Z,60195.18
2019-05-17T19:19:02.191Z,60184.34
2019-05-17T19:23:58.121Z,60202.32
2019-05-17T19:28:54.059Z,60118.62
2019-05-17T19:33:50.083Z,60130.77
2019-05-17T19:38:46.017Z,60140.89
2019-05-17T19:43:41.980Z,60150.50
2019-05-17T19:48:37.902Z,60058.64
2019-05-17T19:53:33.832Z,60064.48
2019-05-17T19:58:29.755Z,60074.46
2019-05-17T20:03:25.688Z,60051.64
2019-05-17T20:08:21.621Z,60058.07
2019-05-17T20:13:18.283Z,60038.45
2019-05-17T20:18:14.847Z,60079.94
2019-05-17T20:23:10.766Z,60030.95
2019-05-17T20:28:06.689Z,60020.14
2019-05-17T20:33:02.613Z,60022.50
2019-05-17T20:37:58.554Z,60090.30
2019-05-17T20:42:54.485Z,60104.09
2019-05-17T20:47:50.417Z,60017.62
2019-05-17T20:52:46.355Z,60022.25
2019-05-17T20:57:42.279Z,60051.52
2019-05-17T21:02:38.212Z,60056.27
2019-05-17T21:07:34.149Z,60069.84
2019-05-17T21:12:30.092Z,60060.57
2019-05-17T21:17:26.031Z,60005.63
2019-05-17T21:22:21.967Z,60047.00
2019-05-17T21:27:17.899Z,60085.30
2019-05-17T21:32:13.878Z,60098.62
2019-05-17T21:37:09.807Z,60082.08
2019-05-17T21:42:05.718Z,60033.20
2019-05-17T21:47:04.665Z,60040.10
2019-05-17T21:51:59.585Z,60044.62
2019-05-17T21:56:55.516Z,60072.69
2019-05-17T22:01:51.943Z,60053.65
2019-05-17T22:06:47.875Z,60052.47
2019-05-17T22:11:45.805Z,60034.16
2019-05-17T22:16:41.831Z,60047.96
2019-05-17T22:21:37.768Z,60050.33
2019-05-17T22:26:33.691Z,60045.82
2019-05-17T22:31:29.614Z,60056.04
2019-05-17T22:36:25.607Z,59979.02
2019-05-17T22:41:21.533Z,59967.14
2019-05-17T22:46:17.471Z,60005.64
2019-05-17T22:51:13.420Z,59959.76
2019-05-17T22:56:09.348Z,59919.14
2019-05-17T23:01:05.274Z,59885.66
2019-05-17T23:06:01.207Z,59896.71
2019-05-17T23:10:57.150Z,59953.58
2019-05-17T23:16:03.861Z,59964.16
2019-05-17T23:21:00.013Z,59964.16
2019-05-17T23:25:55.934Z,59976.51
2019-05-17T23:30:51.861Z,59939.09
2019-05-17T23:35:47.826Z,59936.95
2019-05-17T23:40:43.854Z,59900.98
2019-05-17T23:45:39.789Z,59915.83
2019-05-17T23:50:36.517Z,59895.40
2019-05-17T23:55:32.507Z,59858.84
